createdAt,value
2022-08-18T00:01:15.793Z,20.20
2022-08-18T00:03:55.778Z,20.20
2022-08-18T00:06:28.482Z,20.20
2022-08-18T00:08:59.242Z,20.20
2022-08-18T00:11:41.654Z,20.20
2022-08-18T00:14:22.238Z,20.20
2022-08-18T00:16:52.686Z,20.20
2022-08-18T00:19:45.944Z,20.20
2022-08-18T00:22:14.636Z,20.20
2022-08-18T00:24:47.804Z,20.00
2022-08-18T00:27:23.312Z,20.00
2022-08-18T00:29:52.540Z,20.00
2022-08-18T00:32:23.446Z,20.00
2022-08-18T00:34:53.911Z,20.00
2022-08-18T00:37:23.638Z,20.00
2022-08-18T00:39:54.261Z,20.00
2022-08-18T00:42:31.124Z,20.00
2022-08-18T00:45:02.801Z,20.00
2022-08-18T00:47:33.157Z,19.90
2022-08-18T00:50:15.083Z,19.80
2022-08-18T00:52:46.262Z,19.90
2022-08-18T00:55:18.830Z,19.80
2022-08-18T00:57:50.287Z,19.80
2022-08-18T01:00:20.863Z,19.80
2022-08-18T01:02:57.554Z,19.70
2022-08-18T01:05:30.970Z,19.70
2022-08-18T01:07:59.309Z,19.70
2022-08-18T01:10:28.725Z,19.70
2022-08-18T01:12:59.247Z,19.70
2022-08-18T01:15:30.454Z,19.70
2022-08-18T01:18:17.842Z,19.70
2022-08-18T01:21:15.947Z,19.60
2022-08-18T01:23:47.612Z,19.70
2022-08-18T01:26:20.042Z,19.70
2022-08-18T01:28:49.783Z,19.70
2022-08-18T01:31:34.897Z,19.60
2022-08-18T01:34:04.802Z,19.60
2022-08-18T01:36:38.872Z,19.60
2022-08-18T01:39:13.059Z,19.60
2022-08-18T01:41:42.090Z,19.60
2022-08-18T01:44:13.104Z,19.60
2022-08-18T01:46:44.400Z,19.60
2022-08-18T01:49:13.343Z,19.60
2022-08-18T01:51:44.969Z,19.60
2022-08-18T01:54:16.196Z,19.60
2022-08-18T01:56:44.965Z,19.60
2022-08-18T01:59:17.234Z,19.50
2022-08-18T02:01:52.980Z,19.50
2022-08-18T02:04:41.575Z,19.50
2022-08-18T02:07:16.395Z,19.50
2022-08-18T02:09:51.097Z,19.40
2022-08-18T02:12:20.451Z,19.40
2022-08-18T02:14:51.720Z,19.40
2022-08-18T02:17:20.978Z,19.40
2022-08-18T02:19:49.094Z,19.40
2022-08-18T02:22:21.638Z,19.40
2022-08-18T02:24:52.859Z,19.40
2022-08-18T02:27:21.259Z,19.30
2022-08-18T02:29:50.069Z,19.30
2022-08-18T02:32:18.804Z,19.30
2022-08-18T02:34:46.963Z,19.30
2022-08-18T02:37:15.685Z,19.30
2022-08-18T02:39:44.363Z,19.20
2022-08-18T02:42:15.444Z,19.20
2022-08-18T02:44:44.487Z,19.30
2022-08-18T02:47:12.660Z,19.30
2022-08-18T02:49:40.940Z,19.30
2022-08-18T02:52:08.865Z,19.30
2022-08-18T02:54:36.923Z,19.40
2022-08-18T02:57:08.342Z,19.20
2022-08-18T02:59:39.266Z,19.20
2022-08-18T03:02:08.642Z,19.20
2022-08-18T03:04:37.206Z,19.20
2022-08-18T03:07:07.957Z,19.20
2022-08-18T03:09:36.882Z,19.20
2022-08-18T03:12:08.776Z,19.20
2022-08-18T03:14:40.487Z,19.20
2022-08-18T03:17:10.510Z,19.20
2022-08-18T03:19:38.782Z,19.20
2022-08-18T03:22:28.370Z,19.20
2022-08-18T03:24:59.224Z,19.20
2022-08-18T03:27:27.883Z,19.20
2022-08-18T03:29:58.813Z,19.20
2022-08-18T03:32:26.944Z,19.20
2022-08-18T03:34:57.353Z,19.30
2022-08-18T03:37:25.312Z,19.20
2022-08-18T03:39:53.370Z,19.20
2022-08-18T03:42:21.714Z,19.20
2022-08-18T03:44:49.923Z,19.20
2022-08-18T03:47:19.825Z,19.20
2022-08-18T03:49:49.001Z,19.20
2022-08-18T03:52:17.650Z,19.20
2022-08-18T03:54:45.626Z,19.20
2022-08-18T03:57:14.032Z,19.20
2022-08-18T03:59:44.369Z,19.20
2022-08-18T04:02:13.355Z,19.20
2022-08-18T04:04:47.985Z,19.10
2022-08-18T04:07:19.950Z,19.10
2022-08-18T04:09:47.938Z,19.20
2022-08-18T04:12:17.645Z,19.20
2022-08-18T04:14:48.767Z,19.20
2022-08-18T04:17:17.557Z,19.20
2022-08-18T04:19:47.098Z,19.10
2022-08-18T04:22:17.474Z,19.20
2022-08-18T04:24:49.712Z,19.20
2022-08-18T04:27:18.746Z,19.10
2022-08-18T04:29:46.927Z,19.20
2022-08-18T04:32:15.298Z,19.10
2022-08-18T04:34:45.121Z,19.10
2022-08-18T04:37:15.363Z,19.20
2022-08-18T04:39:44.098Z,19.20
2022-08-18T04:42:14.437Z,19.10
2022-08-18T04:44:42.532Z,19.10
2022-08-18T04:47:11.008Z,19.10
2022-08-18T04:49:39.157Z,19.20
2022-08-18T04:52:40.281Z,19.10
2022-08-18T04:55:12.098Z,19.20
2022-08-18T04:57:42.484Z,19.10
2022-08-18T05:00:12.546Z,19.10
2022-08-18T05:02:40.682Z,19.10
2022-08-18T05:05:09.640Z,19.20
2022-08-18T05:07:38.489Z,19.20
2022-08-18T05:10:06.977Z,19.20
2022-08-18T05:12:36.496Z,19.20
2022-08-18T05:15:07.250Z,19.20
2022-08-18T05:17:41.755Z,19.20
2022-08-18T05:20:10.725Z,19.20
2022-08-18T05:22:40.711Z,19.30
2022-08-18T05:25:10.588Z,19.30
2022-08-18T05:27:43.875Z,19.30
2022-08-18T05:30:15.279Z,19.30
2022-08-18T05:32:49.168Z,19.30
2022-08-18T05:35:23.716Z,19.40
2022-08-18T05:38:06.973Z,19.40
2022-08-18T05:40:35.861Z,19.40
2022-08-18T05:43:07.629Z,19.40
2022-08-18T05:45:37.401Z,19.40
2022-08-18T05:48:05.711Z,19.40
2022-08-18T05:50:36.982Z,19.60
2022-08-18T05:53:13.420Z,20.70
2022-08-18T05:56:07.527Z,20.90
2022-08-18T05:58:43.491Z,21.50
2022-08-18T06:01:21.733Z,22.20
2022-08-18T06:03:53.689Z,23.00
2022-08-18T06:06:24.814Z,24.00
2022-08-18T06:08:59.715Z,24.80
2022-08-18T06:11:30.153Z,25.60
2022-08-18T06:14:00.355Z,26.50
2022-08-18T06:16:44.540Z,27.10
2022-08-18T06:19:31.995Z,27.90
2022-08-18T06:22:09.245Z,28.40
2022-08-18T06:24:42.923Z,29.00
2022-08-18T06:27:18.844Z,29.40
2022-08-18T06:29:59.122Z,29.70
2022-08-18T06:32:43.558Z,30.00
2022-08-18T06:35:21.642Z,30.30
2022-08-18T06:38:13.942Z,30.50
2022-08-18T06:40:41.988Z,31.00
2022-08-18T06:43:15.813Z,30.70
2022-08-18T06:45:52.254Z,30.50
2022-08-18T06:48:28.455Z,30.80
2022-08-18T06:51:00.706Z,30.90
2022-08-18T06:53:53.474Z,30.10
2022-08-18T06:56:26.984Z,29.60
2022-08-18T06:58:55.474Z,28.90
2022-08-18T07:01:26.429Z,29.10
2022-08-18T07:03:58.102Z,29.00
2022-08-18T07:06:31.326Z,28.90
2022-08-18T07:09:21.854Z,28.80
2022-08-18T07:12:06.465Z,28.40
2022-08-18T07:14:44.807Z,28.20
2022-08-18T07:17:22.189Z,28.10
2022-08-18T07:20:02.615Z,28.20
2022-08-18T07:22:39.455Z,27.90
2022-08-18T07:25:18.952Z,27.70
2022-08-18T07:27:50.632Z,27.70
2022-08-18T07:30:30.897Z,27.90
2022-08-18T07:33:09.475Z,28.10
2022-08-18T07:35:41.532Z,27.70
2022-08-18T07:38:41.532Z,27.80
2022-08-18T07:41:13.955Z,28.00
2022-08-18T07:43:48.696Z,28.60
2022-08-18T07:46:23.626Z,28.60
2022-08-18T07:48:53.182Z,28.40
2022-08-18T07:51:32.516Z,28.40
2022-08-18T07:54:44.877Z,28.70
2022-08-18T07:57:16.368Z,29.10
2022-08-18T07:59:57.818Z,29.30
2022-08-18T08:02:39.991Z,29.50
2022-08-18T08:05:20.898Z,29.30
2022-08-18T08:08:00.005Z,29.80
2022-08-18T08:10:36.940Z,29.30
2022-08-18T08:13:43.851Z,28.60
2022-08-18T08:16:20.478Z,28.20
2022-08-18T08:18:59.536Z,27.90
2022-08-18T08:21:36.159Z,27.70
2022-08-18T08:24:15.469Z,27.50
2022-08-18T08:26:58.735Z,27.60
2022-08-18T08:29:42.627Z,27.70
2022-08-18T08:32:16.632Z,27.70
2022-08-18T08:34:50.144Z,27.30
2022-08-18T08:37:25.351Z,26.90
2022-08-18T08:39:59.537Z,26.80
2022-08-18T08:42:45.988Z,26.80
2022-08-18T08:45:23.227Z,26.90
2022-08-18T08:48:08.526Z,26.90
2022-08-18T08:50:46.293Z,27.00
2022-08-18T08:53:27.208Z,26.80
2022-08-18T08:56:02.496Z,26.50
2022-08-18T08:58:36.961Z,26.10
2022-08-18T09:01:07.395Z,25.80
2022-08-18T09:03:47.117Z,25.60
2022-08-18T09:06:26.619Z,25.30
2022-08-18T09:09:14.104Z,25.20
2022-08-18T09:12:16.589Z,25.10
2022-08-18T09:15:10.364Z,24.90
2022-08-18T09:18:05.257Z,25.00
2022-08-18T09:20:51.340Z,25.30
2022-08-18T09:23:26.756Z,25.20
2022-08-18T09:25:58.581Z,25.20
2022-08-18T09:28:58.692Z,25.10
2022-08-18T09:31:31.966Z,24.80
2022-08-18T09:34:26.087Z,24.70
2022-08-18T09:37:07.743Z,24.90
2022-08-18T09:40:12.553Z,24.80
2022-08-18T09:42:50.391Z,24.70
2022-08-18T09:45:55.617Z,24.80
2022-08-18T09:48:30.745Z,25.00
2022-08-18T09:51:23.800Z,25.30
2022-08-18T09:54:12.403Z,25.50
2022-08-18T09:57:08.259Z,25.60
2022-08-18T10:00:00.286Z,25.30
2022-08-18T10:03:11.411Z,25.40
2022-08-18T10:05:56.603Z,25.40
2022-08-18T10:12:21.506Z,25.50
2022-08-18T10:15:32.870Z,25.50
2022-08-18T10:18:39.686Z,25.40
2022-08-18T10:21:16.565Z,25.10
2022-08-18T10:27:09.747Z,24.90
2022-08-18T10:29:53.693Z,25.00
2022-08-18T10:32:54.572Z,24.70
2022-08-18T10:38:54.156Z,24.80
2022-08-18T10:41:27.171Z,24.70
2022-08-18T10:44:01.207Z,24.80
2022-08-18T10:46:42.350Z,25.00
2022-08-18T10:49:31.780Z,24.90
2022-08-18T10:52:29.541Z,25.10
2022-08-18T10:55:22.889Z,25.30
2022-08-18T10:58:28.287Z,25.20
2022-08-18T11:01:09.355Z,25.10
2022-08-18T11:04:13.874Z,25.20
2022-08-18T11:06:50.145Z,25.30
2022-08-18T11:09:26.573Z,25.40
2022-08-18T11:12:00.095Z,25.50
2022-08-18T11:14:45.410Z,25.50
2022-08-18T11:17:30.030Z,25.50
2022-08-18T11:20:03.251Z,25.40
2022-08-18T11:22:37.264Z,25.40
2022-08-18T11:25:21.787Z,25.40
2022-08-18T11:27:51.194Z,25.50
2022-08-18T11:30:31.001Z,25.50
2022-08-18T11:33:02.715Z,25.50
2022-08-18T11:35:35.087Z,25.60
2022-08-18T11:38:12.299Z,25.60
2022-08-18T11:46:30.268Z,25.90
2022-08-18T11:49:00.898Z,26.00
2022-08-18T11:51:32.213Z,26.10
2022-08-18T11:54:23.400Z,26.00
2022-08-18T11:56:55.112Z,25.90
2022-08-18T11:59:55.056Z,25.80
2022-08-18T12:02:26.169Z,25.70
2022-08-18T12:05:03.499Z,25.70
2022-08-18T12:07:37.938Z,25.80
2022-08-18T12:10:25.803Z,25.70
2022-08-18T12:12:57.623Z,25.80
2022-08-18T12:15:44.045Z,25.80
2022-08-18T12:18:26.362Z,25.80
2022-08-18T12:20:59.510Z,25.80
2022-08-18T12:23:44.469Z,25.70
2022-08-18T12:26:37.890Z,25.70
2022-08-18T12:29:09.044Z,25.70
2022-08-18T12:34:31.008Z,25.80
2022-08-18T12:37:01.497Z,25.70
2022-08-18T12:39:30.990Z,25.70
2022-08-18T12:42:02.378Z,25.70
2022-08-18T12:44:33.189Z,25.60
2022-08-18T12:47:02.917Z,25.60
2022-08-18T12:49:36.304Z,25.50
2022-08-18T12:52:12.925Z,25.60
2022-08-18T12:54:55.777Z,25.50
2022-08-18T12:57:51.725Z,25.60
2022-08-18T13:00:18.850Z,25.70
2022-08-18T13:02:52.975Z,25.70
2022-08-18T13:05:26.622Z,25.70
2022-08-18T13:07:58.049Z,25.80
2022-08-18T13:10:42.849Z,25.90
2022-08-18T13:13:16.997Z,26.00
2022-08-18T13:15:58.732Z,25.70
2022-08-18T13:18:29.526Z,25.70
2022-08-18T13:20:58.331Z,25.80
2022-08-18T13:23:28.507Z,25.90
2022-08-18T13:26:01.544Z,25.90
2022-08-18T13:28:36.216Z,26.00
2022-08-18T13:31:23.503Z,26.00
2022-08-18T13:33:59.390Z,26.10
2022-08-18T13:36:46.103Z,26.20
2022-08-18T13:39:16.101Z,26.20
2022-08-18T13:41:46.614Z,26.50
2022-08-18T13:44:20.690Z,26.60
2022-08-18T13:46:52.144Z,26.50
2022-08-18T13:49:23.824Z,26.60
2022-08-18T13:52:00.434Z,26.40
2022-08-18T13:54:35.131Z,26.20
2022-08-18T13:57:05.517Z,26.10
2022-08-18T13:59:38.400Z,26.10
2022-08-18T14:02:15.473Z,26.10
2022-08-18T14:04:46.799Z,26.00
2022-08-18T14:07:19.070Z,26.00
2022-08-18T14:09:54.032Z,26.00
2022-08-18T14:12:31.046Z,26.00
2022-08-18T14:15:15.022Z,26.00
2022-08-18T14:17:44.833Z,26.10
2022-08-18T14:20:31.033Z,26.10
2022-08-18T14:23:23.580Z,26.00
2022-08-18T14:26:11.120Z,26.10
2022-08-18T14:28:41.224Z,26.10
2022-08-18T14:31:20.719Z,26.10
2022-08-18T14:33:57.390Z,25.90
2022-08-18T14:36:32.321Z,26.00
2022-08-18T14:39:03.573Z,26.10
2022-08-18T14:41:49.458Z,26.10
2022-08-18T14:44:25.439Z,26.20
2022-08-18T14:47:04.405Z,26.30
2022-08-18T14:49:34.880Z,26.40
2022-08-18T14:52:14.020Z,26.30
2022-08-18T14:54:46.226Z,26.40
2022-08-18T14:59:57.502Z,26.10
2022-08-18T15:02:27.140Z,26.00
2022-08-18T15:04:57.677Z,26.00
2022-08-18T15:07:26.220Z,26.00
2022-08-18T15:10:15.289Z,26.10
2022-08-18T15:12:43.550Z,25.80
2022-08-18T15:15:16.784Z,25.70
2022-08-18T15:17:52.414Z,25.60
2022-08-18T15:20:24.010Z,25.60
2022-08-18T15:23:23.442Z,25.50
2022-08-18T15:26:02.625Z,25.60
2022-08-18T15:28:33.360Z,25.60
2022-08-18T15:31:17.429Z,25.50
2022-08-18T15:33:50.989Z,25.30
2022-08-18T15:36:29.329Z,25.40
2022-08-18T15:39:03.817Z,25.20
2022-08-18T15:41:44.252Z,25.10
2022-08-18T15:44:16.833Z,25.10
2022-08-18T15:46:47.289Z,25.00
2022-08-18T15:49:24.258Z,24.90
2022-08-18T15:51:53.242Z,25.00
2022-08-18T15:54:23.420Z,24.90
2022-08-18T15:56:58.216Z,24.90
2022-08-18T15:59:39.632Z,24.90
2022-08-18T16:02:11.520Z,24.90
2022-08-18T16:04:45.073Z,25.00
2022-08-18T16:07:18.002Z,25.00
2022-08-18T16:09:55.228Z,25.00
2022-08-18T16:12:23.409Z,25.20
2022-08-18T16:14:54.588Z,25.20
2022-08-18T16:17:29.898Z,25.20
2022-08-18T16:20:01.798Z,25.20
2022-08-18T16:22:31.060Z,25.30
2022-08-18T16:24:59.490Z,25.30
2022-08-18T16:27:31.109Z,25.20
2022-08-18T16:29:59.014Z,25.20
2022-08-18T16:32:28.158Z,25.20
2022-08-18T16:34:56.134Z,25.10
2022-08-18T16:37:25.609Z,25.10
2022-08-18T16:39:53.760Z,25.10
2022-08-18T16:42:25.899Z,25.10
2022-08-18T16:44:54.019Z,25.00
2022-08-18T16:47:22.243Z,24.80
2022-08-18T16:49:50.971Z,24.80
2022-08-18T16:52:22.661Z,25.00
2022-08-18T16:54:57.763Z,24.90
2022-08-18T16:57:55.544Z,24.80
2022-08-18T17:00:44.716Z,24.80
2022-08-18T17:03:30.821Z,24.70
2022-08-18T17:06:02.947Z,24.70
2022-08-18T17:08:33.558Z,24.70
2022-08-18T17:11:08.555Z,24.70
2022-08-18T17:13:38.865Z,24.80
2022-08-18T17:16:09.750Z,24.80
2022-08-18T17:18:41.028Z,24.60
2022-08-18T17:21:11.415Z,24.60
2022-08-18T17:23:40.556Z,24.60
2022-08-18T17:26:18.813Z,24.60
2022-08-18T17:28:52.745Z,24.60
2022-08-18T17:31:25.134Z,24.50
2022-08-18T17:33:58.468Z,24.60
2022-08-18T17:36:35.018Z,24.60
2022-08-18T17:39:05.992Z,24.60
2022-08-18T17:42:01.625Z,24.50
2022-08-18T17:44:32.352Z,24.60
2022-08-18T17:47:04.472Z,24.40
2022-08-18T17:50:26.244Z,24.30
2022-08-18T17:52:54.275Z,24.30
2022-08-18T17:55:26.232Z,24.40
2022-08-18T17:58:04.604Z,24.40
2022-08-18T18:00:32.753Z,24.30
2022-08-18T18:03:03.323Z,24.30
2022-08-18T18:05:40.201Z,24.30
2022-08-18T18:08:09.597Z,24.20
2022-08-18T18:13:33.299Z,24.20
2022-08-18T18:16:03.520Z,24.10
2022-08-18T18:18:39.748Z,24.10
2022-08-18T18:21:58.933Z,24.00
2022-08-18T18:24:24.112Z,24.00
2022-08-18T18:26:52.762Z,23.90
2022-08-18T18:29:32.321Z,23.90
2022-08-18T18:32:05.562Z,23.90
2022-08-18T18:34:39.521Z,23.70
2022-08-18T18:37:27.727Z,23.70
2022-08-18T18:39:58.100Z,23.70
2022-08-18T18:42:29.293Z,23.70
2022-08-18T18:45:05.824Z,23.70
2022-08-18T18:47:58.700Z,23.70
2022-08-18T18:50:33.300Z,23.60
2022-08-18T18:53:22.597Z,23.60
2022-08-18T18:56:03.728Z,23.60
2022-08-18T18:58:43.286Z,23.50
2022-08-18T19:01:17.889Z,23.50
2022-08-18T19:03:51.057Z,23.50
2022-08-18T19:06:32.183Z,23.40
2022-08-18T19:09:08.536Z,23.40
2022-08-18T19:11:52.853Z,23.40
2022-08-18T19:14:26.430Z,23.30
2022-08-18T19:17:02.647Z,23.30
2022-08-18T19:19:39.220Z,23.30
2022-08-18T19:22:12.775Z,23.20
2022-08-18T19:24:56.843Z,23.10
2022-08-18T19:27:30.300Z,23.20
2022-08-18T19:30:07.725Z,23.10
2022-08-18T19:32:44.132Z,23.00
2022-08-18T19:35:19.614Z,23.00
2022-08-18T19:38:15.328Z,23.00
2022-08-18T19:40:47.765Z,22.90
2022-08-18T19:43:40.115Z,22.90
2022-08-18T19:46:19.752Z,22.80
2022-08-18T19:49:02.666Z,22.80
2022-08-18T19:51:44.934Z,22.80
2022-08-18T19:54:27.851Z,22.70
2022-08-18T19:57:11.538Z,22.70
2022-08-18T20:00:15.562Z,22.60
2022-08-18T20:03:09.831Z,22.60
2022-08-18T20:06:32.089Z,22.60
2022-08-18T20:09:10.310Z,22.50
2022-08-18T20:11:59.544Z,22.50
2022-08-18T20:14:33.641Z,22.30
2022-08-18T20:17:24.463Z,22.40
2022-08-18T20:20:15.551Z,22.40
2022-08-18T20:22:54.052Z,22.40
2022-08-18T20:25:51.172Z,22.40
2022-08-18T20:28:38.042Z,22.30
2022-08-18T20:31:16.064Z,22.30
2022-08-18T20:34:14.095Z,22.30
2022-08-18T20:36:47.032Z,22.20
2022-08-18T20:39:42.714Z,22.20
2022-08-18T20:42:51.612Z,22.20
2022-08-18T20:45:31.622Z,22.10
2022-08-18T20:48:25.075Z,22.10
2022-08-18T20:51:10.015Z,22.20
2022-08-18T20:54:13.181Z,22.00
2022-08-18T20:56:50.693Z,22.00
2022-08-18T20:59:35.151Z,22.00
2022-08-18T21:02:14.114Z,22.00
2022-08-18T21:04:50.994Z,21.90
2022-08-18T21:07:37.078Z,21.90
2022-08-18T21:10:17.194Z,21.80
2022-08-18T21:13:00.906Z,21.80
2022-08-18T21:15:36.160Z,21.80
2022-08-18T21:18:07.396Z,21.70
2022-08-18T21:20:39.964Z,21.70
2022-08-18T21:23:10.386Z,21.70
2022-08-18T21:25:49.922Z,21.70
2022-08-18T21:28:29.811Z,21.70
2022-08-18T21:31:41.891Z,21.70
2022-08-18T21:33:57.334Z,21.60
2022-08-18T21:36:32.768Z,21.60
2022-08-18T21:39:05.743Z,21.50
2022-08-18T21:41:42.451Z,21.50
2022-08-18T21:44:26.108Z,21.60
2022-08-18T21:47:06.792Z,21.50
2022-08-18T21:49:36.456Z,21.50
2022-08-18T21:52:12.470Z,21.40
2022-08-18T21:54:44.319Z,21.40
2022-08-18T21:57:25.796Z,21.40
2022-08-18T22:00:29.677Z,21.40
2022-08-18T22:03:21.870Z,21.30
2022-08-18T22:06:03.425Z,21.30
2022-08-18T22:09:01.800Z,21.30
2022-08-18T22:12:01.266Z,21.20
2022-08-18T22:14:35.857Z,21.10
2022-08-18T22:17:32.545Z,21.10
2022-08-18T22:20:39.745Z,21.00
2022-08-18T22:23:41.890Z,21.10
2022-08-18T22:26:13.567Z,21.00
2022-08-18T22:28:58.509Z,21.40
2022-08-18T22:31:30.339Z,21.30
2022-08-18T22:34:03.087Z,21.10
2022-08-18T22:36:52.684Z,21.00
2022-08-18T22:39:29.324Z,20.90
2022-08-18T22:41:58.754Z,20.90
2022-08-18T22:44:29.702Z,20.90
2022-08-18T22:47:01.051Z,20.90
2022-08-18T22:49:39.499Z,20.80
2022-08-18T22:52:18.505Z,20.80
2022-08-18T22:54:47.096Z,20.80
2022-08-18T22:57:23.610Z,20.80
2022-08-18T22:59:59.456Z,20.70
2022-08-18T23:02:30.447Z,20.70
2022-08-18T23:05:00.812Z,20.70
2022-08-18T23:07:29.202Z,20.60
2022-08-18T23:09:57.143Z,20.60
2022-08-18T23:12:25.061Z,20.60
2022-08-18T23:14:54.927Z,20.50
2022-08-18T23:17:23.186Z,20.50
2022-08-18T23:19:52.030Z,20.40
2022-08-18T23:22:21.872Z,20.30
2022-08-18T23:24:49.907Z,20.30
2022-08-18T23:27:18.361Z,20.20
2022-08-18T23:29:46.606Z,20.20
2022-08-18T23:32:18.586Z,20.20
2022-08-18T23:34:48.829Z,20.20
2022-08-18T23:37:22.202Z,20.20
2022-08-18T23:39:51.173Z,20.20
2022-08-18T23:42:22.326Z,20.30
2022-08-18T23:44:52.230Z,20.30
2022-08-18T23:47:25.167Z,20.20
2022-08-18T23:49:54.433Z,20.20
2022-08-18T23:52:25.961Z,20.20
2022-08-18T23:54:56.794Z,20.20
2022-08-18T23:57:25.341Z,20.20
2022-08-18T23:59:53.827Z,20.10
